Time;durP1;ratioP1;P1;durP2;ratioP2;P2;SDS_P1;SDS_P2;PMS_P1;PMS_P2;Temp;Humidity;BMP_temperature;BMP_pressure;BME280_temperature;BME280_humidity;BME280_pressure;Samples;Min_cycle;Max_cycle;Signal;HPM_P1;HPM_P2
2021/09/18 00:00:19;;;;;;;48.60;32.40;;;;;;;15.61;76.72;100311.81;5036250;28;20075;-58
2021/09/18 00:02:48;;;;;;;47.45;32.58;;;;;;;15.58;76.58;100321.78;5035775;28;20066;-58
2021/09/18 00:05:15;;;;;;;45.83;32.20;;;;;;;15.52;76.58;100319.56;5036086;28;20057;-58
2021/09/18 00:07:42;;;;;;;46.42;31.58;;;;;;;15.47;76.60;100314.16;5035314;28;20049;-58
2021/09/18 00:10:11;;;;;;;46.97;32.33;;;;;;;15.41;76.64;100316.38;5035758;28;20053;-57
2021/09/18 00:12:38;;;;;;;47.20;31.88;;;;;;;15.37;76.73;100318.25;5036032;28;20057;-59
2021/09/18 00:15:07;;;;;;;42.33;29.15;;;;;;;15.36;76.44;100314.63;5035423;28;20060;-56
2021/09/18 00:17:34;;;;;;;47.17;31.13;;;;;;;15.35;76.70;100315.81;5035455;28;20053;-59
2021/09/18 00:20:06;;;;;;;48.67;32.72;;;;;;;15.33;76.76;100309.72;5035881;28;20053;-59
2021/09/18 00:22:34;;;;;;;45.80;31.30;;;;;;;15.25;76.57;100313.47;5035374;28;20080;-59
2021/09/18 00:25:01;;;;;;;49.65;33.25;;;;;;;15.26;76.81;100319.91;5034413;28;20045;-56
2021/09/18 00:27:28;;;;;;;49.83;33.08;;;;;;;15.25;76.69;100324.69;5035287;28;20390;-56
2021/09/18 00:29:55;;;;;;;50.10;32.53;;;;;;;15.25;77.04;100324.69;5035276;28;20421;-58
2021/09/18 00:32:23;;;;;;;48.10;32.80;;;;;;;15.21;77.09;100318.16;5035124;28;20049;-58
2021/09/18 00:34:50;;;;;;;46.88;30.73;;;;;;;15.16;77.65;100322.00;5035286;28;20064;-59
2021/09/18 00:37:19;;;;;;;48.78;32.95;;;;;;;15.15;77.86;100325.97;5016822;28;20409;-59
2021/09/18 00:39:46;;;;;;;48.27;34.20;;;;;;;15.18;78.09;100327.25;5019175;28;20065;-59
2021/09/18 00:42:13;;;;;;;52.47;34.17;;;;;;;15.20;78.01;100322.94;5034728;28;20062;-59
2021/09/18 00:44:41;;;;;;;53.60;35.65;;;;;;;15.15;78.34;100313.94;5035024;28;20064;-58
2021/09/18 00:47:11;;;;;;;48.22;33.65;;;;;;;15.11;78.51;100313.00;5034833;28;20057;-57
2021/09/18 00:49:41;;;;;;;;;;;;;;;15.19;78.01;100312.06;5035466;28;20057;-58
2021/09/18 00:52:08;;;;;;;42.85;30.70;;;;;;;15.26;78.32;100320.72;5034427;28;19928;-59
2021/09/18 00:54:37;;;;;;;43.63;30.77;;;;;;;15.33;78.15;100314.50;5034862;28;20057;-58
2021/09/18 00:57:04;;;;;;;41.43;29.50;;;;;;;15.39;78.01;100313.09;5033647;28;20402;-57
2021/09/18 00:59:33;;;;;;;39.35;28.52;;;;;;;15.44;77.90;100315.69;5035027;28;20460;-58
2021/09/18 01:02:00;;;;;;;35.80;27.85;;;;;;;15.51;77.74;100307.50;5034971;28;20057;-57
2021/09/18 01:04:28;;;;;;;37.72;28.02;;;;;;;15.55;77.50;100314.03;5035048;28;20045;-59
2021/09/18 01:06:55;;;;;;;34.30;26.70;;;;;;;15.57;77.02;100310.88;5034396;28;20048;-59
2021/09/18 01:09:23;;;;;;;38.15;28.00;;;;;;;15.60;76.99;100307.34;5034256;28;20429;-59
2021/09/18 01:11:52;;;;;;;35.50;27.27;;;;;;;15.60;77.02;100315.78;5034223;28;20125;-59
2021/09/18 01:14:19;;;;;;;37.22;27.80;;;;;;;15.67;77.02;100316.03;5034731;28;20080;-59
2021/09/18 01:16:46;;;;;;;35.50;26.80;;;;;;;15.71;76.85;100319.78;5034483;28;20057;-59
2021/09/18 01:19:16;;;;;;;38.65;28.45;;;;;;;15.74;76.82;100316.28;5034353;28;20407;-58
2021/09/18 01:21:47;;;;;;;43.92;31.33;;;;;;;15.81;76.81;100319.31;5034309;28;20068;-58
2021/09/18 01:24:17;;;;;;;40.58;29.63;;;;;;;15.79;76.50;100321.66;5033668;28;20053;-59
2021/09/18 01:26:47;;;;;;;35.03;28.63;;;;;;;15.79;76.90;100316.03;5033985;28;20478;-57
2021/09/18 01:29:14;;;;;;;35.75;28.58;;;;;;;15.81;76.58;100319.31;5034316;28;20046;-59
2021/09/18 01:31:44;;;;;;;41.28;30.70;;;;;;;15.84;76.73;100323.41;5034193;28;20414;-58
2021/09/18 01:34:16;;;;;;;40.60;30.60;;;;;;;15.87;76.68;100322.69;5034126;28;20053;-58
2021/09/18 01:36:44;;;;;;;37.75;30.42;;;;;;;15.90;76.71;100318.38;5020166;28;20062;-59
2021/09/18 01:39:14;;;;;;;41.38;31.48;;;;;;;15.93;76.60;100323.25;5014199;28;20410;-59
2021/09/18 01:41:44;;;;;;;39.35;31.35;;;;;;;15.88;76.88;100315.09;5031938;28;20049;-59
2021/09/18 01:44:13;;;;;;;40.08;30.20;;;;;;;15.93;76.68;100315.66;5034446;28;20060;-58
2021/09/18 01:46:41;;;;;;;43.38;31.40;;;;;;;15.96;76.29;100311.34;5034305;28;20069;-56
2021/09/18 01:49:13;;;;;;;35.78;28.88;;;;;;;15.97;76.08;100315.75;5034068;28;20056;-59
2021/09/18 01:51:43;;;;;;;43.60;31.65;;;;;;;15.94;75.67;100310.88;5034355;28;20057;-59
2021/09/18 01:54:12;;;;;;;44.92;33.40;;;;;;;15.91;75.54;100320.00;5033892;28;20053;-59
2021/09/18 01:56:39;;;;;;;43.80;31.90;;;;;;;15.83;75.61;100316.97;5033822;28;20068;-58
2021/09/18 01:59:08;;;;;;;47.10;33.95;;;;;;;15.79;75.52;100310.44;5033528;28;20041;-59
2021/09/18 02:01:36;;;;;;;45.70;33.17;;;;;;;15.71;75.87;100308.53;5034152;28;20478;-59
2021/09/18 02:04:03;;;;;;;47.70;34.90;;;;;;;15.68;75.79;100308.41;5033621;28;20509;-59
2021/09/18 02:06:31;;;;;;;51.28;34.25;;;;;;;15.65;75.84;100309.13;5033651;28;20053;-58
2021/09/18 02:08:59;;;;;;;52.58;33.47;;;;;;;15.63;75.75;100315.09;5033328;28;20053;-57
2021/09/18 02:11:26;;;;;;;50.03;35.17;;;;;;;15.59;75.84;100305.75;5033953;28;20383;-58
2021/09/18 02:13:54;;;;;;;47.85;33.08;;;;;;;15.52;75.87;100299.91;5033486;28;20062;-59
2021/09/18 02:16:23;;;;;;;50.83;33.63;;;;;;;15.49;75.72;100312.63;5033021;28;20049;-58
2021/09/18 02:18:52;;;;;;;46.70;33.78;;;;;;;15.47;75.85;100302.94;5027283;28;20054;-59
2021/09/18 02:21:20;;;;;;;48.58;34.38;;;;;;;15.42;75.54;100307.63;5033345;28;20053;-58
2021/09/18 02:23:48;;;;;;;51.40;34.70;;;;;;;15.34;75.56;100305.75;5032441;28;20057;-59
2021/09/18 02:26:16;;;;;;;48.70;33.00;;;;;;;15.21;75.71;100310.53;5033215;28;20053;-56
2021/09/18 02:28:44;;;;;;;53.08;35.38;;;;;;;15.16;76.21;100309.94;5033368;28;20049;-58
2021/09/18 02:31:11;;;;;;;51.42;33.63;;;;;;;15.13;75.90;100307.84;5033494;28;20061;-57
2021/09/18 02:33:40;;;;;;;49.80;34.38;;;;;;;15.08;76.33;100308.09;5033733;28;20080;-59
2021/09/18 02:36:10;;;;;;;50.53;33.45;;;;;;;15.08;76.26;100313.69;5024935;28;20407;-59
2021/09/18 02:38:38;;;;;;;50.85;32.85;;;;;;;15.06;76.41;100304.81;5018842;28;20506;-58
2021/09/18 02:41:05;;;;;;;62.33;36.03;;;;;;;14.98;76.27;100312.97;5032450;28;20057;-58
2021/09/18 02:43:33;;;;;;;52.88;35.38;;;;;;;14.94;76.43;100305.59;5033334;28;20409;-57
2021/09/18 02:46:01;;;;;;;56.75;35.00;;;;;;;14.88;76.81;100307.81;5033424;28;20049;-58
2021/09/18 02:48:28;;;;;;;57.67;36.38;;;;;;;14.84;76.81;100304.06;5032966;28;20058;-58
2021/09/18 02:50:57;;;;;;;59.22;37.70;;;;;;;14.85;76.77;100300.09;5033045;28;20056;-58
2021/09/18 02:53:26;;;;;;;57.90;36.50;;;;;;;14.84;76.75;100304.06;5033352;28;20057;-58
2021/09/18 02:55:53;;;;;;;61.00;37.60;;;;;;;14.80;76.57;100298.34;5032547;28;20459;-58
2021/09/18 02:58:21;;;;;;;58.92;36.47;;;;;;;14.73;76.62;100302.88;5033315;28;20060;-58
2021/09/18 03:00:48;;;;;;;58.63;35.60;;;;;;;14.71;76.45;100305.19;5033105;28;20064;-57
2021/09/18 03:03:16;;;;;;;52.35;34.00;;;;;;;14.69;76.54;100296.31;5033146;28;20053;-56
2021/09/18 03:05:43;;;;;;;51.92;33.15;;;;;;;14.61;76.63;100301.69;5032932;28;20054;-59
2021/09/18 03:08:13;;;;;;;50.97;34.17;;;;;;;14.57;76.40;100292.34;5033035;28;20394;-57
2021/09/18 03:10:41;;;;;;;57.33;34.40;;;;;;;14.53;76.78;100294.16;5033010;28;20390;-57
2021/09/18 03:13:08;;;;;;;57.97;35.30;;;;;;;14.51;76.71;100299.28;5032987;28;20049;-56
2021/09/18 03:15:36;;;;;;;58.65;35.55;;;;;;;14.48;76.69;100291.56;5035558;28;20057;-58
2021/09/18 03:18:03;;;;;;;62.10;36.10;;;;;;;14.45;76.72;100297.03;5037497;28;20061;-57
2021/09/18 03:20:31;;;;;;;59.50;36.60;;;;;;;14.38;76.80;100295.63;5036723;28;20058;-59
2021/09/18 03:22:59;;;;;;;57.92;36.33;;;;;;;14.33;77.06;100295.81;5036804;28;20409;-58
2021/09/18 03:25:28;;;;;;;56.00;35.00;;;;;;;14.29;77.06;100297.66;5036023;28;20053;-55
2021/09/18 03:27:57;;;;;;;74.43;41.33;;;;;;;14.24;76.91;100297.06;5036268;28;20041;-56
2021/09/18 03:30:24;;;;;;;75.68;41.53;;;;;;;14.19;77.07;100295.28;5036907;28;20054;-55
2021/09/18 03:32:51;;;;;;;81.25;42.75;;;;;;;14.12;77.25;100293.03;5036577;28;20393;-55
2021/09/18 03:35:19;;;;;;;73.25;41.10;;;;;;;14.10;77.22;100292.56;5035963;28;20079;-57
2021/09/18 03:37:46;;;;;;;75.13;42.65;;;;;;;14.10;77.32;100297.34;5036084;28;20057;-55
2021/09/18 03:40:14;;;;;;;72.32;41.60;;;;;;;14.13;77.14;100294.69;5035784;28;20049;-56
2021/09/18 03:42:43;;;;;;;72.20;41.65;;;;;;;14.10;77.17;100295.38;5036590;28;20053;-57
2021/09/18 03:45:11;;;;;;;74.70;41.85;;;;;;;14.08;77.46;100294.09;5036951;28;20057;-57
2021/09/18 03:47:38;;;;;;;75.97;40.38;;;;;;;14.02;77.39;100296.25;5036273;28;20386;-58
2021/09/18 03:50:08;;;;;;;72.15;39.97;;;;;;;14.01;77.70;100295.44;5036140;28;20408;-58
2021/09/18 03:52:36;;;;;;;86.35;43.20;;;;;;;13.98;77.56;100293.34;5036348;28;20057;-57
2021/09/18 03:55:04;;;;;;;81.55;41.05;;;;;;;14.00;77.53;100292.97;5035402;28;20057;-55
2021/09/18 03:57:32;;;;;;;74.55;41.42;;;;;;;13.95;77.25;100293.19;5035915;28;20543;-58
2021/09/18 04:00:00;;;;;;;79.95;44.38;;;;;;;13.92;77.45;100291.06;5036054;28;20049;-58
2021/09/18 04:02:27;;;;;;;98.85;48.33;;;;;;;13.86;77.83;100293.28;5035739;28;20068;-57
2021/09/18 04:04:55;;;;;;;90.30;46.83;;;;;;;13.80;77.57;100295.44;5035444;28;20045;-57
2021/09/18 04:07:22;;;;;;;76.82;41.88;;;;;;;13.82;77.67;100300.72;5035900;28;20057;-57
2021/09/18 04:09:50;;;;;;;94.68;47.10;;;;;;;13.77;77.52;100296.13;5034767;28;20410;-57
2021/09/18 04:12:17;;;;;;;92.25;46.20;;;;;;;13.74;77.56;100298.78;5035554;28;20417;-58
2021/09/18 04:14:45;;;;;;;83.03;43.40;;;;;;;13.73;77.53;100299.94;5035654;28;20053;-56
2021/09/18 04:17:13;;;;;;;92.93;48.38;;;;;;;13.68;78.00;100300.16;5035308;28;20053;-55
2021/09/18 04:19:41;;;;;;;93.22;46.63;;;;;;;13.49;78.79;100307.00;5035671;28;20474;-54
2021/09/18 04:22:08;;;;;;;89.68;44.70;;;;;;;13.59;77.98;100305.81;5035095;28;20053;-55
2021/09/18 04:24:36;;;;;;;86.47;44.30;;;;;;;13.60;77.43;100307.44;5034512;28;20053;-58
2021/09/18 04:27:04;;;;;;;84.55;42.38;;;;;;;13.59;77.64;100312.22;5034467;28;20064;-56
2021/09/18 04:29:31;;;;;;;87.35;43.17;;;;;;;13.60;77.46;100313.03;5035049;28;20049;-57
2021/09/18 04:31:59;;;;;;;72.47;38.67;;;;;;;13.61;77.87;100314.69;5035330;28;20064;-56
2021/09/18 04:34:28;;;;;;;73.55;40.08;;;;;;;13.64;77.64;100315.97;5035523;28;20061;-54
2021/09/18 04:36:56;;;;;;;70.30;38.63;;;;;;;13.65;77.85;100320.41;5019840;28;20493;-56
2021/09/18 04:39:24;;;;;;;68.50;37.20;;;;;;;13.64;77.85;100316.78;5027663;28;20060;-57
2021/09/18 04:41:51;;;;;;;60.65;35.15;;;;;;;13.66;78.23;100317.28;5035204;28;20054;-57
2021/09/18 04:44:19;;;;;;;60.65;34.90;;;;;;;13.65;78.34;100324.03;5035523;28;20053;-55
2021/09/18 04:46:46;;;;;;;64.95;36.75;;;;;;;13.71;78.24;100331.09;5034878;28;20053;-56
2021/09/18 04:49:14;;;;;;;63.38;37.35;;;;;;;13.74;77.83;100332.38;5034889;28;20045;-57
2021/09/18 04:51:42;;;;;;;68.07;36.58;;;;;;;13.73;77.73;100333.53;5034864;28;20056;-55
2021/09/18 04:54:10;;;;;;;62.47;37.20;;;;;;;13.75;78.06;100332.06;5034658;28;20061;-56
2021/09/18 04:56:37;;;;;;;61.53;35.60;;;;;;;13.79;77.82;100332.97;5034470;28;20505;-56
2021/09/18 04:59:05;;;;;;;65.05;37.65;;;;;;;13.78;77.66;100341.75;5034926;28;20057;-57
2021/09/18 05:01:32;;;;;;;56.70;35.50;;;;;;;13.83;77.57;100338.72;5034730;28;20402;-57
2021/09/18 05:03:59;;;;;;;61.80;36.70;;;;;;;13.91;78.04;100331.44;5034705;28;20111;-56
2021/09/18 05:06:26;;;;;;;59.17;36.45;;;;;;;13.97;78.20;100344.09;5034806;28;20061;-56
2021/09/18 05:08:55;;;;;;;62.35;36.78;;;;;;;14.03;77.74;100342.72;5034133;28;20058;-55
2021/09/18 05:11:23;;;;;;;67.03;37.97;;;;;;;14.06;78.10;100347.63;5034779;28;20057;-55
2021/09/18 05:13:50;;;;;;;64.95;37.13;;;;;;;14.08;77.70;100356.50;5034107;28;20058;-56
2021/09/18 05:16:17;;;;;;;70.93;37.90;;;;;;;14.16;78.30;100352.00;5034750;28;20506;-55
2021/09/18 05:18:45;;;;;;;74.00;39.55;;;;;;;14.23;78.17;100351.47;5034490;28;20057;-55
2021/09/18 05:21:12;;;;;;;68.00;38.92;;;;;;;14.30;78.52;100351.72;5034425;28;20058;-55
2021/09/18 05:23:39;;;;;;;68.00;35.03;;;;;;;14.26;78.37;100351.59;5033594;28;20052;-55
2021/09/18 05:26:09;;;;;;;81.88;38.75;;;;;;;14.37;78.49;100354.81;5034132;28;20064;-56
2021/09/18 05:28:36;;;;;;;64.03;39.20;;;;;;;14.45;78.21;100356.72;5034320;28;20054;-57
2021/09/18 05:31:03;;;;;;;63.63;39.60;;;;;;;14.57;78.02;100362.41;5034144;28;20057;-54
2021/09/18 05:33:31;;;;;;;92.65;39.22;;;;;;;14.54;77.83;100363.03;5034267;28;20068;-57
2021/09/18 05:35:58;;;;;;;58.53;36.53;;;;;;;14.64;77.58;100367.44;5033865;28;20049;-57
2021/09/18 05:38:26;;;;;;;124.97;42.75;;;;;;;14.71;77.35;100372.50;5032681;28;20061;-57
2021/09/18 05:40:53;;;;;;;72.57;40.55;;;;;;;14.75;77.10;100362.22;5033783;28;20410;-57
2021/09/18 05:43:22;;;;;;;86.97;45.35;;;;;;;14.78;76.83;100369.94;5033932;28;20387;-57
2021/09/18 05:45:49;;;;;;;117.10;51.30;;;;;;;14.84;76.63;100365.75;5033884;28;20053;-57
2021/09/18 05:48:17;;;;;;;97.97;48.47;;;;;;;14.89;76.29;100362.75;5033893;28;20057;-54
2021/09/18 05:50:47;;;;;;;92.90;47.65;;;;;;;14.93;75.97;100368.44;5033420;28;20053;-56
2021/09/18 05:53:14;;;;;;;;;;;;;;;14.90;75.81;100361.56;5029671;28;20053;-55
2021/09/18 05:55:42;;;;;;;82.32;43.45;;;;;;;14.92;75.68;100367.66;5022911;28;19921;-56
2021/09/18 05:58:09;;;;;;;73.88;39.95;;;;;;;14.99;75.40;100367.06;5030017;28;20045;-58
2021/09/18 06:00:38;;;;;;;74.75;40.65;;;;;;;14.99;75.35;100367.91;5033599;28;20056;-56
2021/09/18 06:03:05;;;;;;;90.55;45.67;;;;;;;15.02;75.21;100367.19;5033695;28;20053;-54
2021/09/18 06:05:33;;;;;;;79.68;44.47;;;;;;;15.09;74.96;100377.84;5033328;28;20056;-56
2021/09/18 06:08:00;;;;;;;101.75;42.35;;;;;;;15.18;74.79;100377.75;5021404;28;20054;-57
2021/09/18 06:10:28;;;;;;;85.50;39.83;;;;;;;15.17;75.38;100381.72;5026696;28;20501;-56
2021/09/18 06:12:55;;;;;;;101.35;37.97;;;;;;;15.19;75.43;100368.19;5031165;28;20398;-56
2021/09/18 06:15:23;;;;;;;71.43;38.88;;;;;;;15.27;75.20;100367.25;5031917;28;20410;-57
2021/09/18 06:17:52;;;;;;;82.78;39.38;;;;;;;14.66;77.70;100383.91;5053144;28;20102;-51
2021/09/18 06:20:19;;;;;;;76.55;39.80;;;;;;;14.90;77.53;100386.00;5043803;28;20045;-50
2021/09/18 06:22:46;;;;;;;67.53;39.50;;;;;;;15.12;77.13;100381.94;5031819;28;20061;-51
2021/09/18 06:25:15;;;;;;;153.52;44.10;;;;;;;15.12;76.62;100379.13;5028841;28;20402;-51
2021/09/18 06:27:43;;;;;;;126.68;40.83;;;;;;;15.29;76.56;100387.38;5028527;28;20053;-58
2021/09/18 06:30:12;;;;;;;56.55;37.63;;;;;;;15.43;75.97;100378.59;5031253;28;20049;-58
2021/09/18 06:32:40;;;;;;;58.63;35.17;;;;;;;15.60;75.26;100380.34;5031658;28;20065;-57
2021/09/18 06:35:10;;;;;;;184.70;39.22;;;;;;;15.61;74.61;100382.00;5031384;28;20046;-58
2021/09/18 06:37:42;;;;;;;110.90;36.85;;;;;;;15.69;74.75;100380.25;5031293;28;20050;-58
2021/09/18 06:40:11;;;;;;;95.60;33.45;;;;;;;15.83;74.10;100383.53;5030922;28;20061;-58
2021/09/18 06:42:38;;;;;;;169.18;34.60;;;;;;;15.90;73.63;100394.22;5031522;28;20438;-56
2021/09/18 06:45:07;;;;;;;52.25;32.15;;;;;;;15.90;73.75;100391.41;5031428;28;20049;-56
2021/09/18 06:47:34;;;;;;;75.38;33.80;;;;;;;15.84;73.80;100390.81;5032636;28;20053;-58
2021/09/18 06:50:03;;;;;;;58.70;31.70;;;;;;;15.86;73.88;100399.72;5030291;28;20058;-58
2021/09/18 06:52:32;;;;;;;42.78;30.42;;;;;;;15.92;73.92;100403.91;5029134;28;20049;-58
2021/09/18 06:55:00;;;;;;;35.58;27.42;;;;;;;15.96;73.52;100398.41;5032001;28;20057;-58
2021/09/18 06:57:32;;;;;;;43.60;27.73;;;;;;;16.14;72.90;100394.16;5032228;28;20057;-57
2021/09/18 07:00:00;;;;;;;40.53;28.20;;;;;;;16.29;72.35;100400.22;5030225;28;20548;-57
2021/09/18 07:02:28;;;;;;;41.83;30.30;;;;;;;16.47;71.48;100404.38;5028691;28;20053;-58
2021/09/18 07:04:55;;;;;;;39.22;29.63;;;;;;;16.80;70.45;100400.53;5031615;28;20056;-58
2021/09/18 07:07:26;;;;;;;37.13;28.48;;;;;;;17.05;69.44;100401.25;5031235;28;20060;-57
2021/09/18 07:09:57;;;;;;;35.20;27.50;;;;;;;17.24;68.72;100400.56;5030192;28;20053;-59
2021/09/18 07:12:25;;;;;;;34.80;29.10;;;;;;;17.40;68.25;100395.72;5031292;28;20057;-58
2021/09/18 07:14:52;;;;;;;34.22;28.13;;;;;;;17.50;67.45;100396.38;5030093;28;20060;-58
2021/09/18 07:17:20;;;;;;;32.63;26.98;;;;;;;17.62;66.99;100394.28;5032736;28;20379;-58
2021/09/18 07:19:47;;;;;;;34.20;27.70;;;;;;;17.74;66.57;100395.38;5030529;28;20060;-56
2021/09/18 07:22:15;;;;;;;37.40;28.38;;;;;;;17.96;66.01;100391.91;5029803;28;20060;-58
2021/09/18 07:24:42;;;;;;;27.85;24.73;;;;;;;18.34;64.91;100398.00;5031999;28;20053;-56
2021/09/18 07:27:11;;;;;;;28.58;24.67;;;;;;;18.82;63.57;100398.66;5032362;28;20054;-58
2021/09/18 07:29:38;;;;;;;26.90;24.00;;;;;;;19.28;61.91;100393.06;5032344;28;20133;-58
2021/09/18 07:32:06;;;;;;;25.27;22.58;;;;;;;19.79;60.69;100389.91;5032099;28;20049;-58
2021/09/18 07:34:34;;;;;;;27.10;23.75;;;;;;;20.37;58.86;100387.91;5032206;28;20486;-58
2021/09/18 07:37:01;;;;;;;24.25;21.73;;;;;;;21.15;56.65;100387.28;5032392;28;20057;-58
2021/09/18 07:39:29;;;;;;;24.40;21.92;;;;;;;21.75;54.54;100384.19;5031817;28;20057;-58
2021/09/18 07:41:56;;;;;;;23.45;21.05;;;;;;;22.41;52.35;100381.44;5032242;28;20501;-55
2021/09/18 07:44:25;;;;;;;22.92;20.67;;;;;;;23.03;51.00;100388.16;5032391;28;20049;-59
2021/09/18 07:46:53;;;;;;;23.05;20.73;;;;;;;23.70;49.42;100386.63;5032072;28;20586;-57
2021/09/18 07:49:20;;;;;;;24.50;21.48;;;;;;;24.26;48.04;100393.50;5031816;28;20057;-58
2021/09/18 07:51:48;;;;;;;23.50;21.25;;;;;;;24.78;46.00;100386.41;5032651;28;20045;-59
2021/09/18 07:54:15;;;;;;;24.27;21.85;;;;;;;25.20;45.18;100393.09;5032761;28;20084;-57
2021/09/18 07:56:43;;;;;;;22.40;20.13;;;;;;;25.93;43.57;100397.88;5032882;28;20068;-59
2021/09/18 07:59:10;;;;;;;24.58;22.25;;;;;;;26.38;42.59;100388.47;5032270;28;20060;-57
2021/09/18 08:01:39;;;;;;;23.48;21.17;;;;;;;26.84;41.42;100396.50;5032983;28;20053;-59
2021/09/18 08:04:07;;;;;;;24.60;22.20;;;;;;;27.35;40.16;100402.34;5033316;28;20049;-59
2021/09/18 08:06:36;;;;;;;22.55;20.27;;;;;;;27.70;39.14;100405.91;5032211;28;20058;-60
2021/09/18 08:09:05;;;;;;;22.58;20.35;;;;;;;27.59;39.28;100405.25;5033474;28;20056;-60
2021/09/18 08:11:33;;;;;;;22.10;20.08;;;;;;;27.54;39.55;100407.34;5016526;28;20058;-60
2021/09/18 08:14:02;;;;;;;22.50;20.40;;;;;;;28.25;38.84;100400.84;5016327;28;20399;-60
2021/09/18 08:16:30;;;;;;;23.48;21.27;;;;;;;28.81;36.86;100403.84;5015744;28;20058;-59
2021/09/18 08:18:59;;;;;;;21.90;19.85;;;;;;;30.01;35.36;100391.19;5016124;28;20080;-60
2021/09/18 08:21:26;;;;;;;21.77;19.70;;;;;;;29.85;35.08;100387.09;5023786;28;20061;-60
2021/09/18 08:23:53;;;;;;;20.92;18.95;;;;;;;30.95;33.67;100390.22;5035417;28;20510;-60
2021/09/18 08:26:27;;;;;;;20.63;18.83;;;;;;;31.63;32.90;100390.97;5035387;28;20406;-59
2021/09/18 08:28:56;;;;;;;20.80;18.90;;;;;;;32.21;31.50;100389.78;5035383;28;20054;-60
2021/09/18 08:31:26;;;;;;;21.45;19.45;;;;;;;32.95;30.53;100384.63;5035239;28;20045;-60
2021/09/18 08:33:54;;;;;;;20.63;18.75;;;;;;;33.57;29.73;100375.91;5035175;28;20057;-60
2021/09/18 08:36:23;;;;;;;23.17;21.00;;;;;;;33.33;29.42;100389.31;5034724;28;20513;-60
2021/09/18 08:38:50;;;;;;;21.98;19.88;;;;;;;33.98;29.10;100378.78;5033996;28;20049;-60
2021/09/18 08:41:17;;;;;;;22.10;20.10;;;;;;;34.35;28.60;100385.38;5034889;28;20052;-60
2021/09/18 08:43:45;;;;;;;21.52;19.63;;;;;;;34.83;28.32;100378.28;5037284;28;20049;-61
2021/09/18 08:46:13;;;;;;;21.97;20.07;;;;;;;35.42;27.28;100384.53;5034868;28;20065;-60
2021/09/18 08:48:44;;;;;;;21.25;19.40;;;;;;;35.70;26.37;100381.53;5035130;28;20480;-62
2021/09/18 08:51:12;;;;;;;22.42;20.50;;;;;;;35.68;26.52;100379.13;5034805;28;20054;-61
2021/09/18 08:53:43;;;;;;;22.85;20.90;;;;;;;36.18;25.83;100390.25;5034838;28;20050;-61
2021/09/18 08:56:11;;;;;;;21.65;19.75;;;;;;;36.53;25.40;100381.72;5035305;28;20399;-61
2021/09/18 08:58:38;;;;;;;23.13;21.02;;;;;;;37.06;25.02;100391.66;5034466;28;20058;-61
2021/09/18 09:01:05;;;;;;;22.58;20.48;;;;;;;37.45;24.40;100393.66;5034320;28;20053;-61
2021/09/18 09:03:36;;;;;;;23.13;20.80;;;;;;;37.74;23.72;100393.59;5034546;28;20057;-61
2021/09/18 09:06:07;;;;;;;25.42;23.13;;;;;;;38.14;23.85;100397.88;5034967;28;20060;-61
2021/09/18 09:08:36;;;;;;;26.42;24.02;;;;;;;38.44;22.73;100396.91;5033475;28;20050;-61
2021/09/18 09:11:23;;;;;;;26.48;23.95;;;;;;;38.72;22.33;100397.22;5034584;28;20045;-61
2021/09/18 09:14:01;;;;;;;27.35;24.85;;;;;;;38.54;22.51;100398.38;5034715;28;20064;-61
2021/09/18 09:16:30;;;;;;;27.38;24.92;;;;;;;38.57;22.95;100400.25;5034119;28;20061;-61
2021/09/18 09:18:58;;;;;;;27.38;24.90;;;;;;;39.13;21.89;100400.81;5034693;28;20496;-61
2021/09/18 09:21:27;;;;;;;26.02;23.65;;;;;;;39.34;21.78;100404.44;5034452;28;20050;-61
2021/09/18 09:24:12;;;;;;;24.75;22.55;;;;;;;39.60;22.05;100396.94;5031251;28;20064;-61
2021/09/18 09:26:43;;;;;;;20.27;18.50;;;;;;;39.68;21.48;100404.69;5033759;28;20360;-62
2021/09/18 09:29:10;;;;;;;21.63;19.58;;;;;;;39.86;21.82;100402.69;5032561;28;20067;-62
2021/09/18 09:31:40;;;;;;;21.35;19.45;;;;;;;38.12;23.80;100411.31;5033740;28;20410;-61
2021/09/18 09:34:14;;;;;;;23.08;21.02;;;;;;;38.35;23.45;100406.59;5034169;28;20053;-61
2021/09/18 09:36:44;;;;;;;25.98;23.65;;;;;;;37.84;23.94;100408.81;5032481;28;20057;-61
2021/09/18 09:39:14;;;;;;;24.45;22.27;;;;;;;38.54;23.63;100410.00;5033424;28;20050;-61
2021/09/18 09:41:46;;;;;;;22.40;20.40;;;;;;;39.40;21.22;100401.59;5024415;28;20056;-60
2021/09/18 09:44:16;;;;;;;23.10;20.90;;;;;;;37.67;23.39;100404.84;5031363;28;20052;-61
2021/09/18 09:46:45;;;;;;;21.95;19.95;;;;;;;37.66;23.59;100403.25;5032611;28;20045;-60
2021/09/18 09:49:15;;;;;;;20.95;18.95;;;;;;;38.83;22.18;100406.09;5027900;28;20061;-61
2021/09/18 09:51:44;;;;;;;20.08;18.17;;;;;;;38.47;21.90;100398.78;5032656;28;20053;-61
2021/09/18 09:54:32;;;;;;;21.48;19.38;;;;;;;39.99;20.36;100397.22;5029659;28;20057;-61
2021/09/18 09:57:09;;;;;;;20.50;18.58;;;;;;;39.93;20.58;100397.16;5032496;28;20052;-61
2021/09/18 09:59:38;;;;;;;22.07;19.97;;;;;;;39.45;20.76;100402.94;5033255;28;20045;-61
2021/09/18 10:02:08;;;;;;;23.42;21.30;;;;;;;38.18;22.43;100397.66;5038495;28;20049;-61
2021/09/18 10:04:37;;;;;;;24.27;22.02;;;;;;;39.07;21.39;100397.06;5034159;28;20049;-60
2021/09/18 10:07:06;;;;;;;24.40;22.10;;;;;;;39.83;20.56;100401.59;5032592;28;20056;-60
2021/09/18 10:09:36;;;;;;;23.17;20.98;;;;;;;39.38;21.09;100398.38;5033278;28;20062;-59
2021/09/18 10:12:05;;;;;;;21.35;19.38;;;;;;;38.40;22.01;100407.97;5030590;28;20072;-60
2021/09/18 10:14:36;;;;;;;22.55;20.33;;;;;;;39.87;20.11;100392.63;5030509;28;20060;-60
2021/09/18 10:17:03;;;;;;;21.80;19.75;;;;;;;41.02;19.16;100394.09;5030351;28;20060;-61
2021/09/18 10:19:52;;;;;;;21.20;19.10;;;;;;;41.66;19.07;100397.25;5033285;28;20061;-61
2021/09/18 10:25:13;;;;;;;20.63;18.60;;;;;;;42.91;15.96;100403.41;5035008;28;20057;-61
2021/09/18 10:27:41;;;;;;;18.52;16.83;;;;;;;42.12;17.11;100397.94;5033650;28;20463;-61
2021/09/18 10:30:28;;;;;;;21.58;19.58;;;;;;;42.53;17.10;100397.25;5033069;28;20046;-61
2021/09/18 10:32:56;;;;;;;19.13;17.23;;;;;;;42.67;17.05;100396.06;5032890;28;20073;-61
2021/09/18 10:35:23;;;;;;;19.70;17.80;;;;;;;41.91;16.70;100389.47;5033130;28;20057;-61
2021/09/18 10:37:51;;;;;;;18.85;17.00;;;;;;;42.25;16.63;100383.50;5032508;28;20493;-59
2021/09/18 10:40:19;;;;;;;18.27;16.67;;;;;;;42.35;16.49;100381.84;5032096;28;20057;-62
2021/09/18 10:42:48;;;;;;;17.20;15.70;;;;;;;42.60;17.47;100384.16;5032742;28;20049;-61
2021/09/18 10:45:19;;;;;;;19.65;17.88;;;;;;;43.73;16.64;100375.22;5032877;28;20071;-61
2021/09/18 10:47:52;;;;;;;20.08;18.27;;;;;;;43.90;16.17;100377.97;5032968;28;20053;-61
2021/09/18 10:50:40;;;;;;;19.33;17.45;;;;;;;44.70;15.73;100382.25;5032751;28;20053;-61
2021/09/18 10:53:12;;;;;;;18.90;17.20;;;;;;;44.92;14.88;100368.56;5032857;28;20045;-61
2021/09/18 10:55:54;;;;;;;16.25;14.85;;;;;;;44.68;14.97;100379.06;5032752;28;20053;-61
2021/09/18 10:58:21;;;;;;;14.85;13.60;;;;;;;44.43;15.37;100368.75;5033078;28;20053;-60
2021/09/18 11:01:01;;;;;;;14.13;12.82;;;;;;;45.27;14.60;100376.25;5032797;28;20053;-60
2021/09/18 11:03:43;;;;;;;14.98;13.68;;;;;;;45.74;13.63;100369.78;5032710;28;20057;-61
2021/09/18 11:06:36;;;;;;;17.20;15.48;;;;;;;45.20;14.73;100359.25;5032844;28;20049;-60
2021/09/18 11:09:04;;;;;;;15.75;14.32;;;;;;;45.26;14.22;100370.97;5012633;28;20060;-60
2021/09/18 11:11:32;;;;;;;13.52;12.27;;;;;;;44.28;14.79;100375.09;5028346;28;20057;-61
2021/09/18 11:14:02;;;;;;;13.52;12.30;;;;;;;43.38;15.24;100365.16;5032599;28;20457;-61
2021/09/18 11:16:34;;;;;;;14.65;13.35;;;;;;;42.68;16.21;100376.38;5032326;28;20076;-59
2021/09/18 11:19:08;;;;;;;13.60;12.40;;;;;;;42.63;16.76;100369.22;5032488;28;20053;-59